sensor_id;sensor_type;location;lat;lon;timestamp;temperature;humidity
52435;DHT22;38354;52.892;6.148;2023-02-02T04:01:52;6.20;99.90
52435;DHT22;38354;52.892;6.148;2023-02-02T04:04:18;6.30;99.90
52435;DHT22;38354;52.892;6.148;2023-02-02T04:06:43;6.30;99.90
52435;DHT22;38354;52.892;6.148;2023-02-02T04:09:09;6.30;99.90
52435;DHT22;38354;52.892;6.148;2023-02-02T04:11:35;6.30;99.90
52435;DHT22;38354;52.892;6.148;2023-02-02T04:14:00;6.30;99.90
52435;DHT22;38354;52.892;6.148;2023-02-02T04:16:26;6.30;99.90
52435;DHT22;38354;52.892;6.148;2023-02-02T04:18:51;6.30;99.90
52435;DHT22;38354;52.892;6.148;2023-02-02T04:21:17;6.30;99.90
52435;DHT22;38354;52.892;6.148;2023-02-02T04:23:43;6.30;99.90
52435;DHT22;38354;52.892;6.148;2023-02-02T04:26:08;6.30;99.90
52435;DHT22;38354;52.892;6.148;2023-02-02T04:28:34;6.30;99.90
52435;DHT22;38354;52.892;6.148;2023-02-02T04:31:00;6.30;99.90
52435;DHT22;38354;52.892;6.148;2023-02-02T04:33:36;6.30;99.90
52435;DHT22;38354;52.892;6.148;2023-02-02T04:36:03;6.30;99.90
52435;DHT22;38354;52.892;6.148;2023-02-02T04:38:28;6.40;99.90
52435;DHT22;38354;52.892;6.148;2023-02-02T04:40:54;6.30;99.90
52435;DHT22;38354;52.892;6.148;2023-02-02T04:43:19;6.30;99.90
52435;DHT22;38354;52.892;6.148;2023-02-02T04:45:45;6.30;99.90
52435;DHT22;38354;52.892;6.148;2023-02-02T04:48:11;6.30;99.90
52435;DHT22;38354;52.892;6.148;2023-02-02T04:50:36;6.30;99.90
52435;DHT22;38354;52.892;6.148;2023-02-02T04:53:03;6.20;99.90
52435;DHT22;38354;52.892;6.148;2023-02-02T04:55:29;6.20;99.90
52435;DHT22;38354;52.892;6.148;2023-02-02T04:57:55;6.20;99.90
52435;DHT22;38354;52.892;6.148;2023-02-02T05:00:20;6.20;99.90
52435;DHT22;38354;52.892;6.148;2023-02-02T05:02:46;6.20;99.90
52435;DHT22;38354;52.892;6.148;2023-02-02T05:05:13;6.10;99.90
52435;DHT22;38354;52.892;6.148;2023-02-02T05:07:38;6.10;99.90
52435;DHT22;38354;52.892;6.148;2023-02-02T05:10:06;6.10;99.90
52435;DHT22;38354;52.892;6.148;2023-02-02T05:12:32;6.10;99.90
52435;DHT22;38354;52.892;6.148;2023-02-02T05:14:58;6.10;99.90
52435;DHT22;38354;52.892;6.148;2023-02-02T05:17:30;6.10;99.90
52435;DHT22;38354;52.892;6.148;2023-02-02T05:19:55;6.00;99.90
52435;DHT22;38354;52.892;6.148;2023-02-02T05:22:21;6.00;99.90
52435;DHT22;38354;52.892;6.148;2023-02-02T05:24:47;6.10;99.90
52435;DHT22;38354;52.892;6.148;2023-02-02T05:27:12;6.10;99.90
52435;DHT22;38354;52.892;6.148;2023-02-02T05:29:38;6.00;99.90
52435;DHT22;38354;52.892;6.148;2023-02-02T05:32:04;6.00;99.90
52435;DHT22;38354;52.892;6.148;2023-02-02T05:34:29;5.90;99.90
52435;DHT22;38354;52.892;6.148;2023-02-02T05:36:55;5.90;99.90
52435;DHT22;38354;52.892;6.148;2023-02-02T05:39:20;5.80;99.90
52435;DHT22;38354;52.892;6.148;2023-02-02T05:41:46;5.70;99.90
52435;DHT22;38354;52.892;6.148;2023-02-02T05:44:13;5.70;99.90
52435;DHT22;38354;52.892;6.148;2023-02-02T05:46:39;5.70;99.90
52435;DHT22;38354;52.892;6.148;2023-02-02T05:49:06;5.70;99.90
52435;DHT22;38354;52.892;6.148;2023-02-02T05:51:36;5.60;99.90
52435;DHT22;38354;52.892;6.148;2023-02-02T05:54:03;5.60;99.90
52435;DHT22;38354;52.892;6.148;2023-02-02T05:56:28;5.50;99.90
52435;DHT22;38354;52.892;6.148;2023-02-02T05:58:54;5.50;99.90
52435;DHT22;38354;52.892;6.148;2023-02-02T06:01:20;5.50;99.90
52435;DHT22;38354;52.892;6.148;2023-02-02T06:03:46;5.50;99.90
52435;DHT22;38354;52.892;6.148;2023-02-02T06:06:12;5.40;99.90
52435;DHT22;38354;52.892;6.148;2023-02-02T06:08:37;5.40;99.90
52435;DHT22;38354;52.892;6.148;2023-02-02T06:11:15;5.40;99.90
52435;DHT22;38354;52.892;6.148;2023-02-02T06:13:41;5.40;99.90
52435;DHT22;38354;52.892;6.148;2023-02-02T06:16:07;5.50;99.90
52435;DHT22;38354;52.892;6.148;2023-02-02T06:18:34;5.40;99.90
52435;DHT22;38354;52.892;6.148;2023-02-02T06:21:01;5.40;99.90
52435;DHT22;38354;52.892;6.148;2023-02-02T06:23:27;5.40;99.90
52435;DHT22;38354;52.892;6.148;2023-02-02T06:25:53;5.40;99.90
52435;DHT22;38354;52.892;6.148;2023-02-02T06:28:19;5.40;99.90
52435;DHT22;38354;52.892;6.148;2023-02-02T06:30:45;5.40;99.90
52435;DHT22;38354;52.892;6.148;2023-02-02T06:33:11;5.40;99.90
52435;DHT22;38354;52.892;6.148;2023-02-02T06:35:36;5.50;99.90
52435;DHT22;38354;52.892;6.148;2023-02-02T06:38:02;5.40;99.90
52435;DHT22;38354;52.892;6.148;2023-02-02T06:40:28;5.50;99.90
52435;DHT22;38354;52.892;6.148;2023-02-02T06:42:58;5.50;99.90
52435;DHT22;38354;52.892;6.148;2023-02-02T06:45:24;5.50;99.90
52435;DHT22;38354;52.892;6.148;2023-02-02T06:47:50;5.50;99.90
52435;DHT22;38354;52.892;6.148;2023-02-02T06:50:16;5.50;99.90
52435;DHT22;38354;52.892;6.148;2023-02-02T06:52:49;5.50;99.90
52435;DHT22;38354;52.892;6.148;2023-02-02T06:55:15;5.50;99.90
52435;DHT22;38354;52.892;6.148;2023-02-02T06:57:40;5.50;99.90
52435;DHT22;38354;52.892;6.148;2023-02-02T07:00:07;5.50;99.90
52435;DHT22;38354;52.892;6.148;2023-02-02T07:02:33;5.50;99.90
52435;DHT22;38354;52.892;6.148;2023-02-02T07:04:58;5.50;99.90
52435;DHT22;38354;52.892;6.148;2023-02-02T07:07:24;5.50;99.90
52435;DHT22;38354;52.892;6.148;2023-02-02T07:09:49;5.50;99.90
52435;DHT22;38354;52.892;6.148;2023-02-02T07:12:15;5.50;99.90
52435;DHT22;38354;52.892;6.148;2023-02-02T07:14:43;5.50;99.90
52435;DHT22;38354;52.892;6.148;2023-02-02T07:17:09;5.50;99.90
52435;DHT22;38354;52.892;6.148;2023-02-02T07:19:35;5.50;99.90
52435;DHT22;38354;52.892;6.148;2023-02-02T07:22:01;5.50;99.90
52435;DHT22;38354;52.892;6.148;2023-02-02T07:24:26;5.50;99.90
52435;DHT22;38354;52.892;6.148;2023-02-02T07:26:52;5.50;99.90
52435;DHT22;38354;52.892;6.148;2023-02-02T07:29:18;5.50;99.90
52435;DHT22;38354;52.892;6.148;2023-02-02T07:31:43;5.50;99.90
52435;DHT22;38354;52.892;6.148;2023-02-02T07:34:10;5.50;99.90
52435;DHT22;38354;52.892;6.148;2023-02-02T07:36:35;5.50;99.90
52435;DHT22;38354;52.892;6.148;2023-02-02T07:39:02;5.50;99.90
52435;DHT22;38354;52.892;6.148;2023-02-02T07:41:29;5.50;99.90
52435;DHT22;38354;52.892;6.148;2023-02-02T07:43:55;5.60;99.90
52435;DHT22;38354;52.892;6.148;2023-02-02T07:46:21;5.60;99.90
52435;DHT22;38354;52.892;6.148;2023-02-02T07:48:46;5.60;99.90
52435;DHT22;38354;52.892;6.148;2023-02-02T07:51:16;5.60;99.90
52435;DHT22;38354;52.892;6.148;2023-02-02T07:53:47;5.60;99.90
52435;DHT22;38354;52.892;6.148;2023-02-02T07:58:41;5.60;99.90
52435;DHT22;38354;52.892;6.148;2023-02-02T08:01:08;5.60;99.90
52435;DHT22;38354;52.892;6.148;2023-02-02T08:03:37;5.60;99.90
52435;DHT22;38354;52.892;6.148;2023-02-02T08:08:35;5.60;99.90
52435;DHT22;38354;52.892;6.148;2023-02-02T08:11:00;5.70;99.90
52435;DHT22;38354;52.892;6.148;2023-02-02T08:13:26;5.70;99.90
52435;DHT22;38354;52.892;6.148;2023-02-02T08:15:51;5.60;99.90
52435;DHT22;38354;52.892;6.148;2023-02-02T08:18:17;5.70;99.90
52435;DHT22;38354;52.892;6.148;2023-02-02T08:20:43;5.70;99.90
52435;DHT22;38354;52.892;6.148;2023-02-02T08:23:08;5.70;99.90
52435;DHT22;38354;52.892;6.148;2023-02-02T08:25:40;5.70;99.90
52435;DHT22;38354;52.892;6.148;2023-02-02T08:28:05;5.70;99.90
52435;DHT22;38354;52.892;6.148;2023-02-02T08:30:31;5.80;99.90
52435;DHT22;38354;52.892;6.148;2023-02-02T08:32:58;5.80;99.90
52435;DHT22;38354;52.892;6.148;2023-02-02T08:35:24;5.80;99.90
52435;DHT22;38354;52.892;6.148;2023-02-02T08:37:49;5.80;99.90
52435;DHT22;38354;52.892;6.148;2023-02-02T08:40:15;5.80;99.90
52435;DHT22;38354;52.892;6.148;2023-02-02T08:42:41;5.80;99.90
52435;DHT22;38354;52.892;6.148;2023-02-02T08:45:08;5.90;99.90
52435;DHT22;38354;52.892;6.148;2023-02-02T08:47:33;5.90;99.90
52435;DHT22;38354;52.892;6.148;2023-02-02T08:49:59;5.90;99.90
52435;DHT22;38354;52.892;6.148;2023-02-02T08:52:24;5.90;99.90
52435;DHT22;38354;52.892;6.148;2023-02-02T08:54:50;5.90;99.90
52435;DHT22;38354;52.892;6.148;2023-02-02T08:57:16;5.90;99.90
52435;DHT22;38354;52.892;6.148;2023-02-02T08:59:41;5.90;99.90
52435;DHT22;38354;52.892;6.148;2023-02-02T09:02:09;5.90;99.90
52435;DHT22;38354;52.892;6.148;2023-02-02T09:04:35;6.00;99.90
52435;DHT22;38354;52.892;6.148;2023-02-02T09:07:00;5.90;99.90
52435;DHT22;38354;52.892;6.148;2023-02-02T09:09:26;6.00;99.90
52435;DHT22;38354;52.892;6.148;2023-02-02T09:11:52;6.00;99.90
52435;DHT22;38354;52.892;6.148;2023-02-02T09:14:17;6.00;99.90
52435;DHT22;38354;52.892;6.148;2023-02-02T09:16:43;6.00;99.90
52435;DHT22;38354;52.892;6.148;2023-02-02T09:19:10;6.00;99.90
52435;DHT22;38354;52.892;6.148;2023-02-02T09:21:35;6.00;99.90
52435;DHT22;38354;52.892;6.148;2023-02-02T09:24:08;6.00;99.90
52435;DHT22;38354;52.892;6.148;2023-02-02T09:26:34;6.00;99.90
52435;DHT22;38354;52.892;6.148;2023-02-02T09:29:02;6.00;99.90
52435;DHT22;38354;52.892;6.148;2023-02-02T09:31:34;6.00;99.90
52435;DHT22;38354;52.892;6.148;2023-02-02T09:34:05;6.00;99.90
52435;DHT22;38354;52.892;6.148;2023-02-02T09:36:31;6.10;99.90
52435;DHT22;38354;52.892;6.148;2023-02-02T09:38:57;6.10;99.90
52435;DHT22;38354;52.892;6.148;2023-02-02T09:47:20;6.10;99.90
52435;DHT22;38354;52.892;6.148;2023-02-02T09:49:59;6.20;99.90
52435;DHT22;38354;52.892;6.148;2023-02-02T09:52:29;6.20;99.90
52435;DHT22;38354;52.892;6.148;2023-02-02T09:55:19;6.20;99.90
52435;DHT22;38354;52.892;6.148;2023-02-02T10:01:13;6.20;99.90
52435;DHT22;38354;52.892;6.148;2023-02-02T10:03:59;6.20;99.90
52435;DHT22;38354;52.892;6.148;2023-02-02T10:06:43;6.30;99.90
52435;DHT22;38354;52.892;6.148;2023-02-02T10:11:42;6.30;99.90
52435;DHT22;38354;52.892;6.148;2023-02-02T10:14:16;6.30;99.90
52435;DHT22;38354;52.892;6.148;2023-02-02T10:16:42;6.30;99.90
52435;DHT22;38354;52.892;6.148;2023-02-02T10:19:13;6.30;99.90
52435;DHT22;38354;52.892;6.148;2023-02-02T10:22:00;6.40;99.90
52435;DHT22;38354;52.892;6.148;2023-02-02T10:24:28;6.30;99.90
52435;DHT22;38354;52.892;6.148;2023-02-02T10:26:59;6.40;99.90
52435;DHT22;38354;52.892;6.148;2023-02-02T10:29:47;6.30;99.90
52435;DHT22;38354;52.892;6.148;2023-02-02T10:38:15;6.40;99.90
52435;DHT22;38354;52.892;6.148;2023-02-02T10:46:30;6.50;99.90
52435;DHT22;38354;52.892;6.148;2023-02-02T10:49:35;6.50;99.90
52435;DHT22;38354;52.892;6.148;2023-02-02T10:54:51;6.50;99.90
52435;DHT22;38354;52.892;6.148;2023-02-02T10:57:35;6.50;99.90
52435;DHT22;38354;52.892;6.148;2023-02-02T11:00:19;6.50;99.90
52435;DHT22;38354;52.892;6.148;2023-02-02T11:02:49;6.50;99.90
52435;DHT22;38354;52.892;6.148;2023-02-02T11:05:26;6.50;99.90
52435;DHT22;38354;52.892;6.148;2023-02-02T11:08:26;6.50;99.90
52435;DHT22;38354;52.892;6.148;2023-02-02T11:10:55;6.60;99.90
52435;DHT22;38354;52.892;6.148;2023-02-02T11:13:27;6.50;99.90
52435;DHT22;38354;52.892;6.148;2023-02-02T11:18:44;6.60;99.90
52435;DHT22;38354;52.892;6.148;2023-02-02T11:23:51;6.60;99.90
52435;DHT22;38354;52.892;6.148;2023-02-02T11:26:17;6.60;99.90
52435;DHT22;38354;52.892;6.148;2023-02-02T11:28:43;6.60;99.90
52435;DHT22;38354;52.892;6.148;2023-02-02T11:31:11;6.60;99.90
52435;DHT22;38354;52.892;6.148;2023-02-02T11:33:37;6.50;99.90
52435;DHT22;38354;52.892;6.148;2023-02-02T11:36:16;6.50;99.90
52435;DHT22;38354;52.892;6.148;2023-02-02T11:38:42;6.50;99.90
52435;DHT22;38354;52.892;6.148;2023-02-02T11:41:08;6.60;99.90
52435;DHT22;38354;52.892;6.148;2023-02-02T11:43:48;6.60;99.90
52435;DHT22;38354;52.892;6.148;2023-02-02T11:46:21;6.60;99.90
52435;DHT22;38354;52.892;6.148;2023-02-02T11:51:28;6.60;99.90
52435;DHT22;38354;52.892;6.148;2023-02-02T11:56:40;6.70;99.90
52435;DHT22;38354;52.892;6.148;2023-02-02T11:59:32;6.70;99.90
52435;DHT22;38354;52.892;6.148;2023-02-02T12:02:23;6.70;99.90
52435;DHT22;38354;52.892;6.148;2023-02-02T12:04:51;6.80;99.90
52435;DHT22;38354;52.892;6.148;2023-02-02T12:07:22;6.80;99.90
52435;DHT22;38354;52.892;6.148;2023-02-02T12:09:49;6.80;99.90
52435;DHT22;38354;52.892;6.148;2023-02-02T12:12:31;6.90;99.90
52435;DHT22;38354;52.892;6.148;2023-02-02T12:15:35;6.90;99.90
52435;DHT22;38354;52.892;6.148;2023-02-02T12:35:35;7.10;99.90
52435;DHT22;38354;52.892;6.148;2023-02-02T12:38:30;7.20;99.90
52435;DHT22;38354;52.892;6.148;2023-02-02T12:43:54;7.20;99.90
52435;DHT22;38354;52.892;6.148;2023-02-02T12:57:31;7.20;99.90
52435;DHT22;38354;52.892;6.148;2023-02-02T13:06:04;7.30;99.90
52435;DHT22;38354;52.892;6.148;2023-02-02T13:08:53;7.20;99.90
52435;DHT22;38354;52.892;6.148;2023-02-02T13:11:49;7.30;99.90
52435;DHT22;38354;52.892;6.148;2023-02-02T13:16:49;7.20;99.90
52435;DHT22;38354;52.892;6.148;2023-02-02T13:19:34;7.30;99.90
52435;DHT22;38354;52.892;6.148;2023-02-02T13:22:02;7.20;99.90
52435;DHT22;38354;52.892;6.148;2023-02-02T13:24:32;7.20;99.90
52435;DHT22;38354;52.892;6.148;2023-02-02T13:27:00;7.20;99.90
52435;DHT22;38354;52.892;6.148;2023-02-02T13:29:34;7.20;99.90
52435;DHT22;38354;52.892;6.148;2023-02-02T13:32:09;7.20;99.90
52435;DHT22;38354;52.892;6.148;2023-02-02T13:34:55;7.20;99.90
52435;DHT22;38354;52.892;6.148;2023-02-02T13:40:26;7.20;99.90
52435;DHT22;38354;52.892;6.148;2023-02-02T13:46:28;7.20;99.90
52435;DHT22;38354;52.892;6.148;2023-02-02T13:55:41;7.20;99.90
52435;DHT22;38354;52.892;6.148;2023-02-02T14:01:12;7.20;99.90
52435;DHT22;38354;52.892;6.148;2023-02-02T14:03:55;7.20;99.90
52435;DHT22;38354;52.892;6.148;2023-02-02T14:06:23;7.20;99.90
52435;DHT22;38354;52.892;6.148;2023-02-02T14:08:55;7.20;99.90
52435;DHT22;38354;52.892;6.148;2023-02-02T14:11:33;7.20;99.90
52435;DHT22;38354;52.892;6.148;2023-02-02T14:14:12;7.20;99.90
52435;DHT22;38354;52.892;6.148;2023-02-02T14:19:52;7.20;99.90
52435;DHT22;38354;52.892;6.148;2023-02-02T14:25:37;7.20;99.90
52435;DHT22;38354;52.892;6.148;2023-02-02T14:27:57;7.20;99.90
52435;DHT22;38354;52.892;6.148;2023-02-02T14:30:30;7.20;99.90
52435;DHT22;38354;52.892;6.148;2023-02-02T14:41:09;7.20;99.90
52435;DHT22;38354;52.892;6.148;2023-02-02T14:43:47;7.20;99.90
52435;DHT22;38354;52.892;6.148;2023-02-02T14:46:39;7.20;99.90
52435;DHT22;38354;52.892;6.148;2023-02-02T14:49:14;7.20;99.90
52435;DHT22;38354;52.892;6.148;2023-02-02T14:51:47;7.20;99.90
52435;DHT22;38354;52.892;6.148;2023-02-02T14:54:22;7.20;99.90
52435;DHT22;38354;52.892;6.148;2023-02-02T14:56:57;7.20;99.90
52435;DHT22;38354;52.892;6.148;2023-02-02T14:59:39;7.20;99.90
52435;DHT22;38354;52.892;6.148;2023-02-02T15:02:12;7.20;99.90
52435;DHT22;38354;52.892;6.148;2023-02-02T15:04:39;7.30;99.90
52435;DHT22;38354;52.892;6.148;2023-02-02T15:07:35;7.30;99.90
52435;DHT22;38354;52.892;6.148;2023-02-02T15:10:02;7.30;99.90
52435;DHT22;38354;52.892;6.148;2023-02-02T15:12:37;7.30;99.90
52435;DHT22;38354;52.892;6.148;2023-02-02T15:17:44;7.40;99.90
52435;DHT22;38354;52.892;6.148;2023-02-02T15:28:55;7.40;99.90
52435;DHT22;38354;52.892;6.148;2023-02-02T15:31:28;7.30;99.90
52435;DHT22;38354;52.892;6.148;2023-02-02T15:34:02;7.30;99.90
52435;DHT22;38354;52.892;6.148;2023-02-02T15:36:34;7.30;99.90
52435;DHT22;38354;52.892;6.148;2023-02-02T15:39:17;7.20;99.90
52435;DHT22;38354;52.892;6.148;2023-02-02T15:41:44;7.20;99.90
52435;DHT22;38354;52.892;6.148;2023-02-02T15:44:17;7.20;99.90
52435;DHT22;38354;52.892;6.148;2023-02-02T15:46:43;7.30;99.90
52435;DHT22;38354;52.892;6.148;2023-02-02T15:49:26;7.30;99.90
52435;DHT22;38354;52.892;6.148;2023-02-02T15:51:55;7.20;99.90
52435;DHT22;38354;52.892;6.148;2023-02-02T15:54:34;7.20;99.90
52435;DHT22;38354;52.892;6.148;2023-02-02T15:57:02;7.20;99.90
52435;DHT22;38354;52.892;6.148;2023-02-02T15:59:38;7.30;99.90
52435;DHT22;38354;52.892;6.148;2023-02-02T16:04:38;7.20;99.90
52435;DHT22;38354;52.892;6.148;2023-02-02T16:07:08;7.20;99.90
52435;DHT22;38354;52.892;6.148;2023-02-02T16:09:37;7.30;99.90
52435;DHT22;38354;52.892;6.148;2023-02-02T16:12:04;7.20;99.90
52435;DHT22;38354;52.892;6.148;2023-02-02T16:14:31;7.20;99.90
52435;DHT22;38354;52.892;6.148;2023-02-02T16:19:45;7.30;99.90
52435;DHT22;38354;52.892;6.148;2023-02-02T16:22:16;7.30;99.90
52435;DHT22;38354;52.892;6.148;2023-02-02T16:24:46;7.30;99.90
52435;DHT22;38354;52.892;6.148;2023-02-02T16:27:18;7.30;99.90
52435;DHT22;38354;52.892;6.148;2023-02-02T16:29:44;7.40;99.90
52435;DHT22;38354;52.892;6.148;2023-02-02T16:32:30;7.40;99.90
52435;DHT22;38354;52.892;6.148;2023-02-02T16:34:57;7.40;99.90
52435;DHT22;38354;52.892;6.148;2023-02-02T16:37:28;7.40;99.90
52435;DHT22;38354;52.892;6.148;2023-02-02T16:42:41;7.40;99.90
52435;DHT22;38354;52.892;6.148;2023-02-02T16:45:10;7.40;99.90
52435;DHT22;38354;52.892;6.148;2023-02-02T16:50:44;7.40;99.90
52435;DHT22;38354;52.892;6.148;2023-02-02T16:53:20;7.40;99.90
52435;DHT22;38354;52.892;6.148;2023-02-02T16:55:47;7.40;99.90
52435;DHT22;38354;52.892;6.148;2023-02-02T16:58:19;7.40;99.90
52435;DHT22;38354;52.892;6.148;2023-02-02T17:01:06;7.40;99.90
52435;DHT22;38354;52.892;6.148;2023-02-02T17:03:35;7.40;99.90
52435;DHT22;38354;52.892;6.148;2023-02-02T17:06:02;7.40;99.90
52435;DHT22;38354;52.892;6.148;2023-02-02T17:08:37;7.40;99.90
52435;DHT22;38354;52.892;6.148;2023-02-02T17:11:07;7.40;99.90
52435;DHT22;38354;52.892;6.148;2023-02-02T17:13:43;7.40;99.90
52435;DHT22;38354;52.892;6.148;2023-02-02T17:16:17;7.40;99.90
52435;DHT22;38354;52.892;6.148;2023-02-02T17:18:43;7.40;99.90
52435;DHT22;38354;52.892;6.148;2023-02-02T17:21:15;7.30;99.90
52435;DHT22;38354;52.892;6.148;2023-02-02T17:23:42;7.40;99.90
52435;DHT22;38354;52.892;6.148;2023-02-02T17:26:09;7.30;99.90
52435;DHT22;38354;52.892;6.148;2023-02-02T17:28:38;7.40;99.90
52435;DHT22;38354;52.892;6.148;2023-02-02T17:31:07;7.40;99.90
52435;DHT22;38354;52.892;6.148;2023-02-02T17:33:34;7.40;99.90
52435;DHT22;38354;52.892;6.148;2023-02-02T17:36:00;7.30;99.90
52435;DHT22;38354;52.892;6.148;2023-02-02T17:38:26;7.30;99.90
52435;DHT22;38354;52.892;6.148;2023-02-02T17:40:53;7.30;99.90
52435;DHT22;38354;52.892;6.148;2023-02-02T17:43:20;7.30;99.90
52435;DHT22;38354;52.892;6.148;2023-02-02T17:45:45;7.30;99.90
52435;DHT22;38354;52.892;6.148;2023-02-02T17:48:12;7.30;99.90
52435;DHT22;38354;52.892;6.148;2023-02-02T17:50:39;7.30;99.90
52435;DHT22;38354;52.892;6.148;2023-02-02T17:53:05;7.30;99.90
52435;DHT22;38354;52.892;6.148;2023-02-02T17:55:41;7.30;99.90
52435;DHT22;38354;52.892;6.148;2023-02-02T17:58:08;7.40;99.90
52435;DHT22;38354;52.892;6.148;2023-02-02T18:00:35;7.40;99.90
52435;DHT22;38354;52.892;6.148;2023-02-02T18:05:37;7.40;99.90
52435;DHT22;38354;52.892;6.148;2023-02-02T18:08:03;7.40;99.90
52435;DHT22;38354;52.892;6.148;2023-02-02T18:10:29;7.40;99.90
52435;DHT22;38354;52.892;6.148;2023-02-02T18:12:55;7.50;99.90
52435;DHT22;38354;52.892;6.148;2023-02-02T18:15:21;7.40;99.90
52435;DHT22;38354;52.892;6.148;2023-02-02T18:17:46;7.50;99.90
52435;DHT22;38354;52.892;6.148;2023-02-02T18:20:14;7.50;99.90
52435;DHT22;38354;52.892;6.148;2023-02-02T18:22:40;7.50;99.90
52435;DHT22;38354;52.892;6.148;2023-02-02T18:25:09;7.50;99.90
52435;DHT22;38354;52.892;6.148;2023-02-02T18:27:35;7.60;99.90
52435;DHT22;38354;52.892;6.148;2023-02-02T18:30:01;7.60;99.90
52435;DHT22;38354;52.892;6.148;2023-02-02T18:32:27;7.60;99.90
52435;DHT22;38354;52.892;6.148;2023-02-02T18:34:53;7.60;99.90
52435;DHT22;38354;52.892;6.148;2023-02-02T18:37:21;7.60;99.90
52435;DHT22;38354;52.892;6.148;2023-02-02T18:39:48;7.60;99.90
52435;DHT22;38354;52.892;6.148;2023-02-02T18:42:13;7.60;99.90
52435;DHT22;38354;52.892;6.148;2023-02-02T18:44:39;7.70;99.90
52435;DHT22;38354;52.892;6.148;2023-02-02T18:47:06;7.60;99.90
52435;DHT22;38354;52.892;6.148;2023-02-02T18:49:32;7.70;99.90
52435;DHT22;38354;52.892;6.148;2023-02-02T18:51:58;7.70;99.90
52435;DHT22;38354;52.892;6.148;2023-02-02T18:54:23;7.70;99.90
52435;DHT22;38354;52.892;6.148;2023-02-02T18:56:49;7.80;99.90
52435;DHT22;38354;52.892;6.148;2023-02-02T18:59:14;7.70;99.90
52435;DHT22;38354;52.892;6.148;2023-02-02T19:01:40;7.80;99.90
52435;DHT22;38354;52.892;6.148;2023-02-02T19:04:06;7.80;99.90
52435;DHT22;38354;52.892;6.148;2023-02-02T19:06:32;7.80;99.90
52435;DHT22;38354;52.892;6.148;2023-02-02T19:09:16;7.80;99.90
52435;DHT22;38354;52.892;6.148;2023-02-02T19:11:44;7.80;99.90
52435;DHT22;38354;52.892;6.148;2023-02-02T19:14:18;7.80;99.90
52435;DHT22;38354;52.892;6.148;2023-02-02T19:16:46;7.80;99.90
52435;DHT22;38354;52.892;6.148;2023-02-02T19:19:18;7.80;99.90
52435;DHT22;38354;52.892;6.148;2023-02-02T19:21:45;7.80;99.90
52435;DHT22;38354;52.892;6.148;2023-02-02T19:24:11;7.80;99.90
52435;DHT22;38354;52.892;6.148;2023-02-02T19:26:40;7.80;99.90
52435;DHT22;38354;52.892;6.148;2023-02-02T19:29:20;7.70;99.90
52435;DHT22;38354;52.892;6.148;2023-02-02T19:31:57;7.70;99.90
52435;DHT22;38354;52.892;6.148;2023-02-02T19:34:23;7.70;99.90
52435;DHT22;38354;52.892;6.148;2023-02-02T19:36:49;7.70;99.90
52435;DHT22;38354;52.892;6.148;2023-02-02T19:39:34;7.70;99.90
52435;DHT22;38354;52.892;6.148;2023-02-02T19:42:00;7.60;99.90
52435;DHT22;38354;52.892;6.148;2023-02-02T19:44:30;7.60;99.90
52435;DHT22;38354;52.892;6.148;2023-02-02T19:46:58;7.60;99.90
52435;DHT22;38354;52.892;6.148;2023-02-02T19:49:35;7.70;99.90
52435;DHT22;38354;52.892;6.148;2023-02-02T19:52:02;7.60;99.90
52435;DHT22;38354;52.892;6.148;2023-02-02T19:57:13;7.60;99.90
52435;DHT22;38354;52.892;6.148;2023-02-02T19:59:41;7.60;99.90
52435;DHT22;38354;52.892;6.148;2023-02-02T20:05:16;7.70;99.90
52435;DHT22;38354;52.892;6.148;2023-02-02T20:07:42;7.70;99.90
52435;DHT22;38354;52.892;6.148;2023-02-02T20:10:21;7.60;99.90
52435;DHT22;38354;52.892;6.148;2023-02-02T20:12:47;7.70;99.90
52435;DHT22;38354;52.892;6.148;2023-02-02T20:15:33;7.70;99.90
52435;DHT22;38354;52.892;6.148;2023-02-02T20:18:03;7.70;99.90
52435;DHT22;38354;52.892;6.148;2023-02-02T20:20:40;7.70;99.90
52435;DHT22;38354;52.892;6.148;2023-02-02T20:25:48;7.70;99.90
52435;DHT22;38354;52.892;6.148;2023-02-02T20:28:37;7.70;99.90
52435;DHT22;38354;52.892;6.148;2023-02-02T20:31:08;7.70;99.90
52435;DHT22;38354;52.892;6.148;2023-02-02T20:33:36;7.70;99.90
52435;DHT22;38354;52.892;6.148;2023-02-02T20:36:28;7.70;99.90
52435;DHT22;38354;52.892;6.148;2023-02-02T20:38:55;7.70;99.90
52435;DHT22;38354;52.892;6.148;2023-02-02T20:41:22;7.70;99.90
52435;DHT22;38354;52.892;6.148;2023-02-02T20:43:48;7.70;99.90
52435;DHT22;38354;52.892;6.148;2023-02-02T20:46:14;7.70;99.90
52435;DHT22;38354;52.892;6.148;2023-02-02T20:48:40;7.70;99.90
52435;DHT22;38354;52.892;6.148;2023-02-02T20:51:06;7.70;99.90
52435;DHT22;38354;52.892;6.148;2023-02-02T20:53:32;7.70;99.90
52435;DHT22;38354;52.892;6.148;2023-02-02T20:55:57;7.80;99.90
52435;DHT22;38354;52.892;6.148;2023-02-02T20:58:26;7.80;99.90
52435;DHT22;38354;52.892;6.148;2023-02-02T21:00:51;7.80;99.90
52435;DHT22;38354;52.892;6.148;2023-02-02T21:03:17;7.80;99.90
52435;DHT22;38354;52.892;6.148;2023-02-02T21:05:43;7.90;99.90
52435;DHT22;38354;52.892;6.148;2023-02-02T21:08:09;7.90;99.90
52435;DHT22;38354;52.892;6.148;2023-02-02T21:10:35;8.00;99.90
52435;DHT22;38354;52.892;6.148;2023-02-02T21:13:00;8.00;99.90
52435;DHT22;38354;52.892;6.148;2023-02-02T21:15:26;8.00;99.90
52435;DHT22;38354;52.892;6.148;2023-02-02T21:17:51;8.10;99.90
52435;DHT22;38354;52.892;6.148;2023-02-02T21:20:18;8.10;99.90
52435;DHT22;38354;52.892;6.148;2023-02-02T21:22:44;8.10;99.90
52435;DHT22;38354;52.892;6.148;2023-02-02T21:25:09;8.10;99.90
52435;DHT22;38354;52.892;6.148;2023-02-02T21:27:35;8.20;99.90
52435;DHT22;38354;52.892;6.148;2023-02-02T21:30:02;8.20;99.90
52435;DHT22;38354;52.892;6.148;2023-02-02T21:32:28;8.20;99.90
52435;DHT22;38354;52.892;6.148;2023-02-02T21:34:54;8.20;99.90
52435;DHT22;38354;52.892;6.148;2023-02-02T21:37:19;8.30;99.90
52435;DHT22;38354;52.892;6.148;2023-02-02T21:39:45;8.30;99.90
52435;DHT22;38354;52.892;6.148;2023-02-02T21:42:16;8.30;99.90
52435;DHT22;38354;52.892;6.148;2023-02-02T21:45:26;8.30;99.90
52435;DHT22;38354;52.892;6.148;2023-02-02T21:50:17;8.30;99.90
52435;DHT22;38354;52.892;6.148;2023-02-02T21:52:44;8.30;99.90
52435;DHT22;38354;52.892;6.148;2023-02-02T21:55:34;8.30;99.90
52435;DHT22;38354;52.892;6.148;2023-02-02T22:00:42;8.40;99.90
52435;DHT22;38354;52.892;6.148;2023-02-02T22:03:32;8.40;99.90
52435;DHT22;38354;52.892;6.148;2023-02-02T22:08:45;8.40;99.90
52435;DHT22;38354;52.892;6.148;2023-02-02T22:13:42;8.40;99.90
52435;DHT22;38354;52.892;6.148;2023-02-02T22:16:14;8.40;99.90
52435;DHT22;38354;52.892;6.148;2023-02-02T22:18:41;8.40;99.90
52435;DHT22;38354;52.892;6.148;2023-02-02T22:21:11;8.40;99.90
52435;DHT22;38354;52.892;6.148;2023-02-02T22:23:37;8.40;99.90
52435;DHT22;38354;52.892;6.148;2023-02-02T22:26:04;8.40;99.90
52435;DHT22;38354;52.892;6.148;2023-02-02T22:28:37;8.40;99.90
52435;DHT22;38354;52.892;6.148;2023-02-02T22:31:08;8.40;99.90
52435;DHT22;38354;52.892;6.148;2023-02-02T22:33:34;8.40;99.90
52435;DHT22;38354;52.892;6.148;2023-02-02T22:36:00;8.40;99.90
52435;DHT22;38354;52.892;6.148;2023-02-02T22:38:25;8.40;99.90